LFSTEDDS

Guest
Details From LFST - Entzheim
To EDDS - Stuttgart
Flight Number -
Tags generated
Created
Modified
Stats Distance 64 nm / 118 km
Max Altitude 6,400 ft / 1,951 m
Waypoints 3
Social Downloads 4
Likes 0
Share VATSIM

Download

Looking for another format? Having issues loading an existing format? Contact us
Advertisement - Login to hide

Notes

Basic altitude profile: - Ascent Rate: 2500ft/min - Ascent Speed: 250kts - Cruise Altitude: 15000ft - Cruise Speed: 420kts - Descent Rate: 1500ft/min - Descent Speed: 250kts

Route

LFST GAGSI EDDS

ID Type Via Altitude Latitude Longitude Leg Dist Tot Dist Heading (true) Name
O LFST APT - 0 ft / 0 m 48.53833˚ 7.62826˚ - 0 nm - Entzheim
GAGSI FIX - 6,400 ft / 1,951 m 48.62972˚ 8.46694˚ 33 nm 33 nm 80° / 81° -
O EDDS APT - 0 ft / 0 m 48.68988˚ 9.22196˚ 30 nm 63 nm 83° / 83° Stuttgart

Altitude Profile

Advertisement - Login to hide

LFST

Details ICAO LFST (SXB)
Name Entzheim
Region France
Timezone Europe/Paris (UTC+1.0)
Stats Elevation 504 ft / 154 m (AMSL)
Location 48.538335° 7.628265°
Runways 1
Magnetic Variation 2.104° E

METAR

LFST 152330Z AUTO 25002KT 9999 BKN035 BKN052 BKN062 02/01 Q1001 TEMPO 3000 -RADZ OVC012

Decode

TAF

TAF LFST 151700Z 1518/1618 18007KT 9999 BKN040 TEMPO 1522/1612 3000 -RADZ BR BKN014 PROB30 TEMPO 1602/1610 -RASN BKN009 BECMG 1606/1609 31010KT

Decode

Departure Runways

ID Width Length Bearing (true) Bearing (mag) Surface Threshold Offset Overrun Length
05 148 ft / 45 m 7,899 ft / 2,408 m 48.60° 46.50° Asphalt 0 ft / 0 m 860 ft / 262 m
23 148 ft / 45 m 7,899 ft / 2,408 m 228.62° 226.52° Asphalt 0 ft / 0 m 902 ft / 275 m

EDDS

Details ICAO EDDS (STR)
Name Stuttgart
Region Germany - Civil
Timezone Europe/Berlin (UTC+1.0)
Stats Elevation 1,273 ft / 388 m (AMSL)
Location 48.689876° 9.221962°
Runways 1
Magnetic Variation 2.524° E

METAR

EDDS 152320Z 08003KT CAVOK M01/M01 Q1001

Decode

TAF

TAF TAF EDDS 151700Z 1518/1618 VRB03KT 9999 SCT035 TEMPO 1600/1618 4000 -SNRA BKN008 BECMG 1608/1610 27006KT

Decode

Destination Runways

ID Width Length Bearing (true) Bearing (mag) Surface Threshold Offset Overrun Length
07 148 ft / 45 m 10,950 ft / 3,337 m 73.96° 71.44° Concrete 981 ft / 299 m 157 ft / 48 m
25 148 ft / 45 m 10,950 ft / 3,337 m 253.99° 251.47° Concrete 0 ft / 0 m 157 ft / 48 m

Approach Navaids

Runway Type Ident Frequency Range Bearing (true) Bearing (mag) Slope Elevation
07 Localiser ISTE 110.90 MHz 18 nm / 33 km 73.99° 71.47° - 1,181 ft / 360 m (AMSL)
07 Glidescope ISTE 110.90 MHz 10 nm / 19 km 73.97° 71.45° 3.00° 1,267 ft / 386 m (AMSL)
07 DME ISTE 115.45 MHz 18 nm / 33 km - - - 1,332 ft / 406 m (AMSL)
25 Localiser ISTW 109.90 MHz 18 nm / 33 km 253.95° 251.42° - 1,267 ft / 386 m (AMSL)
25 Glidescope ISTW 109.90 MHz 10 nm / 19 km 253.97° 251.45° 3.00° 1,181 ft / 360 m (AMSL)
25 DME ISTW 115.45 MHz 18 nm / 33 km - - - 1,332 ft / 406 m (AMSL)

Popular Alternatives